createdAt,value
2022-10-13T00:01:24.588Z,8.50
2022-10-13T00:03:56.015Z,8.00
2022-10-13T00:06:29.081Z,8.60
2022-10-13T00:09:01.149Z,7.80
2022-10-13T00:11:32.930Z,6.90
2022-10-13T00:14:06.110Z,7.80
2022-10-13T00:16:37.486Z,8.80
2022-10-13T00:19:12.892Z,8.50
2022-10-13T00:24:15.208Z,7.40
2022-10-13T00:29:15.588Z,7.90
2022-10-13T00:31:46.594Z,7.80
2022-10-13T00:36:47.277Z,8.10
2022-10-13T00:39:18.365Z,7.10
2022-10-13T00:41:49.492Z,6.80
2022-10-13T00:44:34.133Z,7.40
2022-10-13T00:47:08.686Z,7.30
2022-10-13T00:49:40.229Z,7.10
2022-10-13T00:52:11.906Z,7.60
2022-10-13T00:54:43.452Z,7.70
2022-10-13T00:57:15.053Z,7.20
2022-10-13T00:59:46.361Z,7.40
2022-10-13T01:04:49.476Z,6.60
2022-10-13T01:07:21.664Z,6.70
2022-10-13T01:09:52.666Z,6.30
2022-10-13T01:15:09.647Z,6.70
2022-10-13T01:17:56.300Z,7.90
2022-10-13T01:20:41.233Z,7.40
2022-10-13T01:23:31.676Z,6.80
2022-10-13T01:26:18.806Z,7.60
2022-10-13T01:29:09.055Z,7.50
2022-10-13T01:31:52.682Z,7.10
2022-10-13T01:34:28.197Z,6.70
2022-10-13T01:37:04.519Z,6.80
2022-10-13T01:39:41.519Z,6.40
2022-10-13T01:42:18.910Z,6.20
2022-10-13T01:47:26.653Z,5.90
2022-10-13T01:49:59.087Z,6.10
2022-10-13T01:52:36.459Z,5.20
2022-10-13T01:55:12.685Z,4.80
2022-10-13T01:57:45.492Z,5.30
2022-10-13T02:00:19.317Z,5.60
2022-10-13T02:03:03.289Z,6.30
2022-10-13T02:08:16.739Z,5.60
2022-10-13T02:14:01.794Z,5.40
2022-10-13T02:16:36.152Z,5.00
2022-10-13T02:19:10.473Z,5.00
2022-10-13T02:21:41.924Z,4.70
2022-10-13T02:24:13.817Z,4.70
2022-10-13T02:26:45.160Z,5.20
2022-10-13T02:29:19.108Z,3.90
2022-10-13T02:31:50.564Z,5.10
2022-10-13T02:34:21.640Z,5.00
2022-10-13T02:36:52.472Z,3.90
2022-10-13T02:41:52.906Z,4.50
2022-10-13T02:44:25.055Z,4.40
2022-10-13T02:46:56.229Z,5.00
2022-10-13T02:49:27.415Z,4.60
2022-10-13T02:51:58.518Z,4.10
2022-10-13T02:54:29.478Z,4.80
2022-10-13T02:57:00.601Z,4.20
2022-10-13T03:02:01.629Z,4.10
2022-10-13T03:04:32.906Z,4.00
2022-10-13T03:07:04.256Z,4.00
2022-10-13T03:09:35.403Z,4.40
2022-10-13T03:14:36.017Z,4.30
2022-10-13T03:19:42.182Z,4.80
2022-10-13T03:22:15.503Z,4.30
2022-10-13T03:24:47.183Z,4.40
2022-10-13T03:27:18.296Z,4.00
2022-10-13T03:29:49.226Z,4.30
2022-10-13T03:32:20.343Z,4.50
2022-10-13T03:34:52.229Z,4.10
2022-10-13T03:37:22.986Z,3.90
2022-10-13T03:39:53.894Z,4.00
2022-10-13T03:42:25.093Z,3.90
2022-10-13T03:44:56.682Z,4.30
2022-10-13T03:47:30.933Z,4.60
2022-10-13T03:50:01.814Z,4.50
2022-10-13T03:52:33.135Z,4.10
2022-10-13T03:55:04.356Z,4.80
2022-10-13T03:57:35.147Z,4.10
2022-10-13T04:00:10.731Z,4.60
2022-10-13T04:02:41.924Z,4.40
2022-10-13T04:10:12.849Z,4.10
2022-10-13T04:12:43.824Z,3.90
2022-10-13T04:15:14.760Z,4.40
2022-10-13T04:22:06.503Z,4.70
2022-10-13T04:24:40.714Z,4.30
2022-10-13T04:27:11.587Z,4.70
2022-10-13T04:29:42.415Z,5.00
2022-10-13T04:32:13.233Z,5.10
2022-10-13T04:34:44.070Z,5.00
2022-10-13T04:37:15.154Z,5.50
2022-10-13T04:39:46.313Z,5.60
2022-10-13T04:42:17.683Z,4.50
2022-10-13T04:44:48.904Z,4.60
2022-10-13T04:47:19.738Z,5.50
2022-10-13T04:49:50.655Z,5.70
2022-10-13T04:52:22.066Z,5.50
2022-10-13T04:54:53.290Z,6.20
2022-10-13T04:57:24.266Z,5.20
2022-10-13T04:59:55.289Z,6.40
2022-10-13T05:04:55.917Z,5.40
2022-10-13T05:07:27.005Z,6.30
2022-10-13T05:09:57.966Z,6.80
2022-10-13T05:12:29.067Z,9.00
2022-10-13T05:15:00.052Z,8.00
2022-10-13T05:20:07.519Z,6.60
2022-10-13T05:22:38.852Z,6.60
2022-10-13T05:25:10.345Z,5.20
2022-10-13T05:27:41.432Z,5.30
2022-10-13T05:30:14.187Z,6.10
2022-10-13T05:36:45.183Z,6.70
2022-10-13T05:39:19.067Z,6.10
2022-10-13T05:41:49.871Z,5.40
2022-10-13T05:44:20.758Z,6.20
2022-10-13T05:46:51.483Z,6.20
2022-10-13T05:49:22.506Z,6.20
2022-10-13T05:51:56.729Z,6.10
2022-10-13T05:54:31.168Z,6.00
2022-10-13T05:57:07.486Z,5.60
2022-10-13T05:59:48.467Z,6.00
2022-10-13T06:02:21.424Z,5.40
2022-10-13T06:04:57.029Z,4.60
2022-10-13T06:07:28.225Z,5.50
2022-10-13T06:09:59.563Z,5.90
2022-10-13T06:12:30.458Z,5.40
2022-10-13T06:15:01.363Z,5.00
2022-10-13T06:17:32.381Z,5.20
2022-10-13T06:20:05.573Z,5.20
2022-10-13T06:22:37.594Z,5.40
2022-10-13T06:25:10.520Z,5.10
2022-10-13T06:27:41.627Z,5.30
2022-10-13T06:30:13.726Z,5.00
2022-10-13T06:32:44.619Z,5.20
2022-10-13T06:35:15.466Z,5.60
2022-10-13T06:37:48.688Z,8.30
2022-10-13T06:40:19.920Z,6.60
2022-10-13T06:42:53.647Z,5.40
2022-10-13T06:45:24.933Z,5.00
2022-10-13T06:50:27.363Z,4.50
2022-10-13T06:52:59.307Z,5.00
2022-10-13T06:55:30.300Z,5.50
2022-10-13T07:00:30.789Z,4.60
2022-10-13T07:03:01.659Z,4.90
2022-10-13T07:08:03.067Z,5.40
2022-10-13T07:10:34.146Z,5.00
2022-10-13T07:13:05.094Z,5.80
2022-10-13T07:15:37.960Z,5.40
2022-10-13T07:18:33.630Z,5.90
2022-10-13T07:21:08.146Z,6.20
2022-10-13T07:23:42.917Z,5.80
2022-10-13T07:26:16.070Z,5.60
2022-10-13T07:28:47.479Z,5.50
2022-10-13T07:31:20.223Z,5.90
2022-10-13T07:33:52.437Z,6.50
2022-10-13T07:36:23.703Z,6.50
2022-10-13T07:41:23.841Z,6.50
2022-10-13T07:46:27.948Z,7.50
2022-10-13T07:48:59.301Z,8.40
2022-10-13T07:51:30.444Z,8.70
2022-10-13T07:54:02.305Z,8.50
2022-10-13T07:56:38.508Z,7.70
2022-10-13T07:59:09.571Z,7.50
2022-10-13T08:09:12.554Z,6.00
2022-10-13T08:11:43.537Z,5.60
2022-10-13T08:14:16.577Z,5.50
2022-10-13T08:16:52.973Z,5.30
2022-10-13T08:21:59.202Z,5.70
2022-10-13T08:24:31.108Z,6.50
2022-10-13T08:29:33.844Z,5.50
2022-10-13T08:32:05.274Z,5.30
2022-10-13T08:34:37.201Z,5.50
2022-10-13T08:37:13.977Z,5.90
2022-10-13T08:39:45.648Z,5.50
2022-10-13T08:42:20.795Z,5.30
2022-10-13T08:45:39.321Z,7.00
2022-10-13T08:47:50.199Z,5.10
2022-10-13T08:50:25.304Z,7.90
2022-10-13T08:52:59.999Z,4.40
2022-10-13T08:55:35.699Z,4.10
2022-10-13T08:58:14.480Z,3.80
2022-10-13T09:00:45.485Z,18.40
2022-10-13T09:03:26.563Z,4.70
2022-10-13T09:06:11.931Z,4.90
2022-10-13T09:08:46.419Z,5.50
2022-10-13T09:11:17.577Z,4.00
2022-10-13T09:13:48.965Z,4.70
2022-10-13T09:16:29.470Z,4.50
2022-10-13T09:19:21.347Z,3.80
2022-10-13T09:21:53.821Z,4.70
2022-10-13T09:24:27.932Z,4.40
2022-10-13T09:27:12.230Z,5.30
2022-10-13T09:29:44.253Z,4.80
2022-10-13T09:32:20.347Z,9.10
2022-10-13T09:34:52.954Z,5.00
2022-10-13T09:37:25.580Z,3.90
2022-10-13T09:40:20.675Z,5.10
2022-10-13T09:42:54.952Z,5.40
2022-10-13T09:45:28.002Z,6.90
2022-10-13T09:48:04.242Z,8.40
2022-10-13T09:50:36.821Z,5.60
2022-10-13T09:53:25.075Z,4.90
2022-10-13T09:56:18.738Z,5.50
2022-10-13T09:58:59.500Z,9.20
2022-10-13T10:01:36.185Z,5.20
2022-10-13T10:06:40.144Z,5.80
2022-10-13T10:09:28.453Z,4.60
2022-10-13T10:12:01.289Z,4.60
2022-10-13T10:14:34.360Z,4.80
2022-10-13T10:17:17.017Z,7.20
2022-10-13T10:19:55.389Z,4.70
2022-10-13T10:22:35.921Z,5.80
2022-10-13T10:25:20.216Z,6.90
2022-10-13T10:28:05.124Z,5.40
2022-10-13T10:30:44.309Z,6.10
2022-10-13T10:33:21.199Z,4.80
2022-10-13T10:35:59.239Z,5.50
2022-10-13T10:38:43.382Z,5.20
2022-10-13T10:41:26.363Z,5.50
2022-10-13T10:44:01.901Z,5.20
2022-10-13T10:46:36.810Z,4.50
2022-10-13T10:49:21.619Z,4.80
2022-10-13T10:51:52.876Z,4.90
2022-10-13T10:54:34.822Z,5.20
2022-10-13T10:57:13.860Z,5.80
2022-10-13T10:59:57.409Z,4.10
2022-10-13T11:02:46.384Z,4.30
2022-10-13T11:05:17.983Z,5.70
2022-10-13T11:08:00.671Z,5.10
2022-10-13T11:10:32.087Z,5.40
2022-10-13T11:13:22.499Z,5.50
2022-10-13T11:15:53.912Z,5.10
2022-10-13T11:18:55.598Z,4.30
2022-10-13T11:26:41.571Z,5.20
2022-10-13T11:29:40.572Z,5.90
2022-10-13T11:32:56.335Z,8.10
2022-10-13T11:35:31.549Z,5.00
2022-10-13T11:38:19.009Z,4.80
2022-10-13T11:41:12.830Z,5.60
2022-10-13T11:43:54.002Z,4.90
2022-10-13T11:46:34.010Z,5.30
2022-10-13T11:55:53.421Z,5.60
2022-10-13T11:58:26.436Z,5.10
2022-10-13T12:01:00.276Z,5.10
2022-10-13T12:03:34.214Z,5.40
2022-10-13T12:06:07.992Z,4.60
2022-10-13T12:08:40.362Z,5.30
2022-10-13T12:11:27.717Z,5.00
2022-10-13T12:13:59.456Z,5.30
2022-10-13T12:16:33.849Z,4.80
2022-10-13T12:19:20.691Z,4.60
2022-10-13T12:21:56.942Z,3.80
2022-10-13T12:24:29.828Z,5.60
2022-10-13T12:27:12.138Z,5.20
2022-10-13T12:29:43.584Z,5.30
2022-10-13T12:32:23.438Z,4.70
2022-10-13T12:34:57.601Z,4.80
2022-10-13T12:37:33.611Z,6.00
2022-10-13T12:40:05.955Z,5.40
2022-10-13T12:42:40.439Z,5.20
2022-10-13T12:45:18.831Z,5.20
2022-10-13T12:47:59.442Z,5.10
2022-10-13T12:50:47.762Z,6.50
2022-10-13T12:53:24.754Z,5.90
2022-10-13T12:56:00.563Z,5.50
2022-10-13T12:58:44.324Z,5.20
2022-10-13T13:01:35.176Z,6.30
2022-10-13T13:04:29.624Z,5.70
2022-10-13T13:07:27.216Z,5.10
2022-10-13T13:10:17.998Z,5.00
2022-10-13T13:12:49.721Z,5.30
2022-10-13T13:15:34.715Z,5.40
2022-10-13T13:18:36.821Z,5.40
2022-10-13T13:21:10.172Z,5.40
2022-10-13T13:23:41.376Z,5.90
2022-10-13T13:26:19.955Z,5.70
2022-10-13T13:28:54.045Z,5.50
2022-10-13T13:31:26.823Z,5.50
2022-10-13T13:33:57.895Z,5.50
2022-10-13T13:36:30.866Z,5.80
2022-10-13T13:39:01.877Z,5.80
2022-10-13T13:41:33.070Z,4.70
2022-10-13T13:44:04.801Z,4.50
2022-10-13T13:46:36.356Z,7.40
2022-10-13T13:49:13.633Z,5.70
2022-10-13T13:51:44.714Z,5.80
2022-10-13T13:54:15.791Z,5.50
2022-10-13T13:56:47.787Z,7.00
2022-10-13T13:59:18.893Z,5.20
2022-10-13T14:01:50.105Z,47.20
2022-10-13T14:04:21.717Z,20.10
2022-10-13T14:06:54.002Z,6.90
2022-10-13T14:09:24.928Z,49.40
2022-10-13T14:11:56.405Z,35.60
2022-10-13T14:14:28.220Z,30.80
2022-10-13T14:16:59.192Z,6.90
2022-10-13T14:19:30.568Z,5.20
2022-10-13T14:22:09.206Z,7.60
2022-10-13T14:24:43.417Z,6.40
2022-10-13T14:27:17.706Z,5.10
2022-10-13T14:29:48.681Z,5.90
2022-10-13T14:32:20.096Z,4.90
2022-10-13T14:35:20.583Z,5.40
2022-10-13T14:38:03.617Z,5.30
2022-10-13T14:40:34.570Z,5.30
2022-10-13T14:43:05.629Z,5.20
2022-10-13T14:45:36.563Z,4.90
2022-10-13T14:48:24.680Z,4.70
2022-10-13T14:50:56.650Z,4.50
2022-10-13T14:53:28.501Z,6.00
2022-10-13T14:55:59.600Z,5.70
2022-10-13T14:58:31.023Z,5.00
2022-10-13T15:01:02.053Z,4.60
2022-10-13T15:03:33.489Z,4.70
2022-10-13T15:06:04.303Z,4.20
2022-10-13T15:08:35.227Z,4.70
2022-10-13T15:11:06.756Z,3.90
2022-10-13T15:13:38.094Z,4.10
2022-10-13T15:16:16.368Z,3.70
2022-10-13T15:18:47.773Z,4.10
2022-10-13T15:21:18.819Z,4.00
2022-10-13T15:23:49.963Z,3.50
2022-10-13T15:26:21.792Z,4.10
2022-10-13T15:28:54.397Z,3.90
2022-10-13T15:31:25.632Z,4.10
2022-10-13T15:33:56.462Z,3.90
2022-10-13T15:36:27.796Z,4.00
2022-10-13T15:38:58.963Z,4.30
2022-10-13T15:41:30.040Z,4.10
2022-10-13T15:44:00.841Z,4.10
2022-10-13T15:46:31.762Z,4.20
2022-10-13T15:49:02.842Z,3.80
2022-10-13T15:51:33.949Z,4.60
2022-10-13T15:54:05.309Z,4.40
2022-10-13T15:56:36.623Z,4.70
2022-10-13T15:59:07.802Z,4.60
2022-10-13T16:01:38.662Z,4.30
2022-10-13T16:04:09.599Z,4.60
2022-10-13T16:06:49.044Z,5.40
2022-10-13T16:09:22.782Z,5.40
2022-10-13T16:11:55.189Z,6.20
2022-10-13T16:14:26.303Z,8.00
2022-10-13T16:20:45.362Z,9.80
2022-10-13T16:23:19.636Z,12.80
2022-10-13T16:25:50.647Z,16.00
2022-10-13T16:28:21.730Z,14.00
2022-10-13T16:30:52.753Z,14.50
2022-10-13T16:33:24.011Z,17.80
2022-10-13T16:36:02.640Z,17.20
2022-10-13T16:38:33.374Z,17.60
2022-10-13T16:41:07.693Z,18.70
2022-10-13T16:43:38.456Z,15.60
2022-10-13T16:46:13.332Z,17.90
2022-10-13T16:48:45.631Z,14.30
2022-10-13T16:51:21.312Z,13.20
2022-10-13T16:53:53.730Z,11.80
2022-10-13T16:56:25.790Z,15.10
2022-10-13T16:59:09.336Z,16.60
2022-10-13T17:02:44.307Z,14.30
2022-10-13T17:05:18.270Z,14.50
2022-10-13T17:07:49.268Z,16.00
2022-10-13T17:10:20.513Z,15.70
2022-10-13T17:12:51.549Z,14.80
2022-10-13T17:15:23.459Z,15.50
2022-10-13T17:17:54.543Z,14.30
2022-10-13T17:20:25.444Z,13.80
2022-10-13T17:25:26.082Z,11.80
2022-10-13T17:27:57.052Z,10.80
2022-10-13T17:30:28.026Z,12.00
2022-10-13T17:33:04.047Z,10.80
2022-10-13T17:35:35.507Z,10.90
2022-10-13T17:38:06.663Z,11.50
2022-10-13T17:40:39.255Z,11.70
2022-10-13T17:43:10.086Z,15.10
2022-10-13T17:48:14.079Z,13.30
2022-10-13T17:50:45.712Z,12.70
2022-10-13T17:53:17.030Z,13.40
2022-10-13T17:55:48.466Z,11.60
2022-10-13T17:58:19.570Z,13.80
2022-10-13T18:01:11.859Z,14.60
2022-10-13T18:03:45.990Z,14.40
2022-10-13T18:06:17.720Z,16.10
2022-10-13T18:08:50.323Z,17.00
2022-10-13T18:11:23.297Z,31.90
2022-10-13T18:13:54.725Z,21.30
2022-10-13T18:16:26.188Z,20.50
2022-10-13T18:18:57.376Z,16.30
2022-10-13T18:21:29.443Z,14.60
2022-10-13T18:24:02.708Z,14.30
2022-10-13T18:26:36.102Z,16.80
2022-10-13T18:29:08.872Z,35.10
2022-10-13T18:31:41.657Z,24.20
2022-10-13T18:34:15.674Z,20.10
2022-10-13T18:36:48.346Z,20.20
2022-10-13T18:39:20.855Z,17.90
2022-10-13T18:41:53.263Z,17.80
2022-10-13T18:48:47.939Z,17.80
2022-10-13T18:51:20.439Z,19.60
2022-10-13T18:53:52.472Z,17.90
2022-10-13T18:56:25.455Z,15.90
2022-10-13T18:58:59.843Z,19.70
2022-10-13T19:01:32.711Z,19.30
2022-10-13T19:04:03.660Z,18.40
2022-10-13T19:06:35.599Z,18.50
2022-10-13T19:09:08.803Z,19.00
2022-10-13T19:11:40.633Z,22.30
2022-10-13T19:14:14.313Z,18.90
2022-10-13T19:16:45.988Z,21.30
2022-10-13T19:19:17.119Z,20.10
2022-10-13T19:21:48.184Z,19.60
2022-10-13T19:26:48.733Z,18.50
2022-10-13T19:29:19.458Z,18.60
2022-10-13T19:31:50.271Z,20.10
2022-10-13T19:34:21.517Z,18.60
2022-10-13T19:36:52.860Z,17.40
2022-10-13T19:39:25.591Z,17.50
2022-10-13T19:41:58.233Z,18.50
2022-10-13T19:44:29.346Z,17.30
2022-10-13T19:47:00.418Z,17.70
2022-10-13T19:52:01.470Z,17.40
2022-10-13T19:54:35.017Z,17.90
2022-10-13T19:57:06.218Z,17.00
2022-10-13T19:59:37.246Z,17.20
2022-10-13T20:02:08.258Z,17.10
2022-10-13T20:04:39.548Z,16.40
2022-10-13T20:07:10.687Z,18.10
2022-10-13T20:09:41.754Z,17.00
2022-10-13T20:12:12.518Z,16.10
2022-10-13T20:14:43.550Z,15.30
2022-10-13T20:17:14.637Z,17.20
2022-10-13T20:19:45.596Z,16.80
2022-10-13T20:22:16.466Z,15.00
2022-10-13T20:24:47.483Z,14.90
2022-10-13T20:27:18.886Z,15.20
2022-10-13T20:29:50.837Z,15.60
2022-10-13T20:32:21.534Z,14.40
2022-10-13T20:34:52.548Z,15.20
2022-10-13T20:37:23.680Z,14.10
2022-10-13T20:39:55.004Z,14.80
2022-10-13T20:42:26.205Z,13.50
2022-10-13T20:47:26.313Z,13.30
2022-10-13T20:49:57.232Z,13.50
2022-10-13T20:52:28.243Z,13.20
2022-10-13T20:54:59.091Z,14.20
2022-10-13T20:57:30.468Z,13.30
2022-10-13T21:00:01.451Z,13.10
2022-10-13T21:02:32.588Z,12.90
2022-10-13T21:05:03.620Z,12.70
2022-10-13T21:07:34.645Z,12.00
2022-10-13T21:12:34.921Z,12.30
2022-10-13T21:15:06.567Z,12.10
2022-10-13T21:17:41.689Z,12.90
2022-10-13T21:20:15.076Z,11.40
2022-10-13T21:22:46.164Z,12.40
2022-10-13T21:25:17.710Z,11.80
2022-10-13T21:27:48.938Z,13.10
2022-10-13T21:30:20.235Z,11.50
2022-10-13T21:32:51.517Z,10.90
2022-10-13T21:35:22.777Z,11.30
2022-10-13T21:37:54.125Z,12.30
2022-10-13T21:40:25.075Z,12.80
2022-10-13T21:42:56.088Z,14.70
2022-10-13T21:45:27.373Z,17.40
2022-10-13T21:47:59.024Z,16.10
2022-10-13T21:50:30.845Z,16.20
2022-10-13T21:53:01.821Z,14.70
2022-10-13T21:55:33.171Z,14.60
2022-10-13T21:58:05.342Z,15.70
2022-10-13T22:00:36.741Z,13.30
2022-10-13T22:03:08.399Z,13.90
2022-10-13T22:05:39.386Z,13.10
2022-10-13T22:08:10.938Z,12.20
2022-10-13T22:10:42.075Z,12.30
2022-10-13T22:13:13.285Z,11.80
2022-10-13T22:19:44.652Z,13.20
2022-10-13T22:22:18.612Z,12.80
2022-10-13T22:24:49.612Z,12.90
2022-10-13T22:27:20.723Z,13.10
2022-10-13T22:29:52.087Z,12.50
2022-10-13T22:32:23.141Z,12.80
2022-10-13T22:34:53.926Z,11.20
2022-10-13T22:37:25.023Z,13.10
2022-10-13T22:39:55.806Z,12.30
2022-10-13T22:42:27.155Z,13.90
2022-10-13T22:44:58.238Z,12.60
2022-10-13T22:47:29.206Z,12.90
2022-10-13T22:52:29.677Z,12.50
2022-10-13T22:57:29.999Z,11.20
2022-10-13T23:02:30.369Z,11.90
2022-10-13T23:05:16.891Z,10.90
2022-10-13T23:07:50.868Z,11.90
2022-10-13T23:10:21.814Z,11.30
2022-10-13T23:12:52.710Z,12.60
2022-10-13T23:15:24.021Z,11.60
2022-10-13T23:20:25.570Z,11.00
2022-10-13T23:25:25.745Z,10.60
2022-10-13T23:27:56.867Z,11.30
2022-10-13T23:32:57.451Z,12.80
2022-10-13T23:35:28.559Z,11.20
2022-10-13T23:40:31.651Z,12.00
2022-10-13T23:45:32.301Z,11.10
2022-10-13T23:48:03.771Z,11.70
2022-10-13T23:50:35.175Z,12.00
2022-10-13T23:53:06.466Z,13.30
2022-10-13T23:55:41.145Z,12.00
2022-10-13T23:58:12.497Z,11.90
